Time;durP1;ratioP1;P1;durP2;ratioP2;P2;SDS_P1;SDS_P2;PMS_P1;PMS_P2;Temp;Humidity;BMP_temperature;BMP_pressure;BME280_temperature;BME280_humidity;BME280_pressure;Samples;Min_cycle;Max_cycle;Signal;HPM_P1;HPM_P2
2020/12/23 00:00:11;;;;;;;23.12;10.75;;;;;;;-2.44;81.41;101251.09;1722633;81;21096;-48
2020/12/23 00:02:43;;;;;;;22.32;10.72;;;;;;;-2.43;81.33;101245.02;1718379;81;21990;-48
2020/12/23 00:05:14;;;;;;;20.85;10.50;;;;;;;-2.41;81.25;101246.70;1710351;83;21936;-48
2020/12/23 00:07:42;;;;;;;23.47;10.23;;;;;;;-2.40;81.20;101239.34;1705186;81;21910;-47
2020/12/23 00:10:10;;;;;;;19.48;10.00;;;;;;;-2.40;81.05;101245.83;1716979;81;21115;-48
2020/12/23 00:12:38;;;;;;;18.62;9.13;;;;;;;-2.41;81.01;101245.86;1720956;81;21137;-49
2020/12/23 00:15:07;;;;;;;19.17;8.58;;;;;;;-2.41;81.55;101248.45;1721798;81;21273;-48
2020/12/23 00:17:37;;;;;;;21.17;10.40;;;;;;;-2.37;81.74;101237.16;1722046;82;22039;-49
2020/12/23 00:20:05;;;;;;;16.77;7.80;;;;;;;-2.36;81.55;101236.28;1721134;82;21147;-49
2020/12/23 00:22:33;;;;;;;17.98;8.95;;;;;;;-2.35;81.48;101243.19;1720933;82;21152;-48
2020/12/23 00:25:00;;;;;;;19.95;9.58;;;;;;;-2.35;81.36;101235.83;1721749;82;21620;-49
2020/12/23 00:27:28;;;;;;;30.77;13.22;;;;;;;-2.36;81.47;101237.58;1721748;82;22860;-49
2020/12/23 00:29:56;;;;;;;20.72;9.25;;;;;;;-2.39;81.31;101220.77;1722059;82;21937;-49
2020/12/23 00:35:06;;;;;;;20.27;9.90;;;;;;;-2.30;81.30;101208.97;1854018;76;22743;-49
2020/12/23 00:37:33;;;;;;;22.85;10.03;;;;;;;-2.34;81.21;101203.41;1813936;77;21882;-48
2020/12/23 00:40:01;;;;;;;23.52;10.38;;;;;;;-2.35;81.54;101196.93;1812580;77;21402;-48
2020/12/23 00:42:29;;;;;;;20.32;9.93;;;;;;;-2.35;81.36;101195.21;1803805;78;21176;-48
2020/12/23 00:44:58;;;;;;;18.05;9.23;;;;;;;-2.34;81.29;101189.56;1820948;77;21019;-48
2020/12/23 00:47:26;;;;;;;21.30;10.20;;;;;;;-2.32;80.88;101171.83;1831416;77;21507;-48
2020/12/23 00:49:53;;;;;;;23.55;9.58;;;;;;;-2.30;80.78;101175.67;1767152;80;21053;-48
2020/12/23 00:52:21;;;;;;;19.30;10.13;;;;;;;-2.29;80.63;101174.80;1773724;78;22399;-48
2020/12/23 00:54:49;;;;;;;23.05;10.32;;;;;;;-2.27;80.67;101173.03;1767257;78;21188;-48
2020/12/23 00:57:18;;;;;;;20.80;10.55;;;;;;;-2.28;80.72;101176.51;1769065;78;21089;-49
2020/12/23 00:59:46;;;;;;;22.55;9.15;;;;;;;-2.31;80.87;101168.78;1777244;78;21188;-48
2020/12/23 01:02:13;;;;;;;18.85;8.98;;;;;;;-2.26;81.04;101165.25;1783483;78;21700;-49
2020/12/23 01:04:41;;;;;;;18.82;9.03;;;;;;;-2.24;81.01;101163.91;1772730;78;21662;-49
2020/12/23 01:07:09;;;;;;;19.52;10.15;;;;;;;-2.21;81.02;101161.72;1775276;78;21176;-49
2020/12/23 01:09:36;;;;;;;25.35;10.30;;;;;;;-2.21;81.00;101156.08;1775534;78;21188;-49
2020/12/23 01:12:04;;;;;;;21.10;10.28;;;;;;;-2.20;81.07;101156.49;1775702;78;22583;-48
2020/12/23 01:14:32;;;;;;;21.95;10.60;;;;;;;-2.20;81.01;101155.20;1775437;78;21497;-49
2020/12/23 01:17:00;;;;;;;23.20;10.40;;;;;;;-2.21;81.11;101146.16;1767985;78;21425;-49
2020/12/23 01:19:27;;;;;;;24.63;10.65;;;;;;;-2.18;81.63;101146.11;1793780;78;21182;-48
2020/12/23 01:21:54;;;;;;;20.55;9.90;;;;;;;-2.17;81.56;101140.88;1781441;78;21077;-49
2020/12/23 01:24:22;;;;;;;22.00;9.73;;;;;;;-2.16;81.56;101137.41;1775436;78;21236;-49
2020/12/23 01:26:49;;;;;;;21.33;10.08;;;;;;;-2.13;81.52;101134.76;1775324;78;21224;-49
2020/12/23 01:29:17;;;;;;;25.08;11.05;;;;;;;-2.10;81.36;101132.54;1775485;78;21368;-49
2020/12/23 01:31:44;;;;;;;22.62;10.95;;;;;;;-2.10;81.23;101133.41;1767932;78;22556;-49
2020/12/23 01:34:12;;;;;;;19.07;9.85;;;;;;;-2.13;81.29;101131.33;1767467;78;21205;-49
2020/12/23 01:36:40;;;;;;;21.23;10.13;;;;;;;-2.12;81.29;101127.39;1780227;78;21117;-48
2020/12/23 01:39:07;;;;;;;20.72;8.98;;;;;;;-2.11;81.08;101134.72;1772758;78;21987;-49
2020/12/23 01:41:35;;;;;;;20.82;10.15;;;;;;;-2.16;80.48;101131.38;1799399;78;21402;-49
2020/12/23 01:44:02;;;;;;;14.43;7.30;;;;;;;-2.21;80.34;101132.73;1784518;78;21659;-49
2020/12/23 01:46:32;;;;;;;15.95;8.00;;;;;;;-2.28;79.83;101125.52;1774082;78;21134;-48
2020/12/23 01:49:08;;;;;;;15.80;7.62;;;;;;;-2.30;80.00;101119.50;1804769;78;22152;-49
2020/12/23 01:51:36;;;;;;;16.85;8.13;;;;;;;-2.31;79.82;101115.62;1791209;77;21662;-48
2020/12/23 01:54:03;;;;;;;16.07;8.15;;;;;;;-2.31;80.01;101108.70;1784196;78;21367;-48
2020/12/23 01:56:32;;;;;;;17.25;8.43;;;;;;;-2.28;80.17;101099.58;1806364;78;21133;-48
2020/12/23 01:58:59;;;;;;;18.50;8.75;;;;;;;-2.26;80.15;101103.43;1746274;79;21961;-49
2020/12/23 02:01:28;;;;;;;19.17;8.23;;;;;;;-2.23;79.96;101096.47;1798935;78;20966;-49
2020/12/23 02:03:55;;;;;;;18.57;7.70;;;;;;;-2.21;79.99;101101.61;1761488;78;21488;-49
2020/12/23 02:06:25;;;;;;;19.45;8.55;;;;;;;-2.21;79.70;101088.64;1757023;80;21180;-49
2020/12/23 02:08:52;;;;;;;22.25;9.33;;;;;;;-2.23;79.53;101091.28;1753831;80;21163;-49
2020/12/23 02:11:20;;;;;;;18.60;9.30;;;;;;;-2.23;79.48;101083.50;1755777;80;21047;-49
2020/12/23 02:13:47;;;;;;;22.20;10.40;;;;;;;-2.21;79.58;101070.95;1755885;80;21115;-49
2020/12/23 02:16:15;;;;;;;21.33;10.30;;;;;;;-2.21;79.65;101069.20;1745520;80;21925;-49
2020/12/23 02:18:43;;;;;;;20.45;9.80;;;;;;;-2.20;79.39;101062.28;1761591;80;22605;-49
2020/12/23 02:21:14;;;;;;;21.77;10.28;;;;;;;-2.18;79.64;101062.66;1759105;80;22329;-49
2020/12/23 02:23:43;;;;;;;23.35;11.90;;;;;;;-2.13;80.01;101056.94;1739496;81;21035;-49
2020/12/23 02:26:12;;;;;;;30.08;14.83;;;;;;;-2.08;79.54;101049.93;1733440;81;21624;-49
2020/12/23 02:28:41;;;;;;;30.27;15.35;;;;;;;-2.04;79.23;101049.88;1732115;81;21136;-49
2020/12/23 02:31:08;;;;;;;30.90;15.25;;;;;;;-2.04;79.08;101045.52;1743288;80;21206;-49
2020/12/23 02:33:36;;;;;;;29.95;15.88;;;;;;;-2.04;79.05;101046.82;1736631;81;21135;-49
2020/12/23 02:36:06;;;;;;;25.90;13.62;;;;;;;-2.02;78.93;101045.51;1749074;81;21167;-49
2020/12/23 02:38:34;;;;;;;25.48;13.43;;;;;;;-2.02;78.79;101039.86;1732780;81;22182;-49
2020/12/23 02:41:02;;;;;;;30.15;15.88;;;;;;;-2.01;78.84;101035.55;1728356;81;21139;-49
2020/12/23 02:43:29;;;;;;;31.23;15.30;;;;;;;-2.00;78.84;101031.61;1748699;81;21264;-48
2020/12/23 02:45:57;;;;;;;35.63;16.35;;;;;;;-1.98;78.78;101031.14;1734627;81;21034;-48
2020/12/23 02:48:24;;;;;;;31.15;16.30;;;;;;;-1.95;78.70;101039.32;1749013;80;21135;-48
2020/12/23 02:50:52;;;;;;;32.00;17.15;;;;;;;-1.94;78.51;101018.97;1748770;80;21048;-48
2020/12/23 02:53:19;;;;;;;25.55;14.38;;;;;;;-1.92;78.57;101014.61;1774793;80;20944;-48
2020/12/23 02:55:47;;;;;;;31.95;15.43;;;;;;;-1.90;78.33;101015.86;1752100;80;22197;-48
2020/12/23 02:58:15;;;;;;;29.90;14.73;;;;;;;-1.93;78.41;101013.74;1748565;80;21004;-48
2020/12/23 03:00:42;;;;;;;33.23;14.28;;;;;;;-1.91;78.48;101012.42;1750825;80;21169;-48
2020/12/23 03:03:10;;;;;;;29.15;13.48;;;;;;;-1.92;78.52;101008.12;1755106;81;22328;-48
2020/12/23 03:05:37;;;;;;;27.77;12.82;;;;;;;-1.90;78.62;101011.55;1742711;81;21639;-48
2020/12/23 03:08:06;;;;;;;29.90;13.25;;;;;;;-1.89;78.69;101007.19;1758952;81;21347;-48
2020/12/23 03:10:35;;;;;;;27.45;12.70;;;;;;;-1.86;78.66;101000.22;1733060;81;21014;-48
2020/12/23 03:13:03;;;;;;;29.35;13.95;;;;;;;-1.81;78.71;101002.70;1736959;81;22152;-48
2020/12/23 03:15:30;;;;;;;24.80;11.53;;;;;;;-1.77;78.44;100999.61;1733131;81;21132;-48
2020/12/23 03:17:58;;;;;;;24.63;11.80;;;;;;;-1.79;78.22;100994.44;1750071;81;20990;-48
2020/12/23 03:20:25;;;;;;;27.37;11.68;;;;;;;-1.81;78.47;100994.91;1737430;81;22057;-48
2020/12/23 03:22:53;;;;;;;32.17;14.03;;;;;;;-1.82;78.71;100995.38;1734798;81;21018;-48
2020/12/23 03:25:20;;;;;;;32.03;13.13;;;;;;;-1.79;79.25;100982.34;1735123;81;21129;-48
2020/12/23 03:27:48;;;;;;;31.82;14.35;;;;;;;-1.77;79.03;100984.05;1745318;81;21137;-48
2020/12/23 03:30:16;;;;;;;31.85;14.35;;;;;;;-1.79;78.68;100981.47;1759523;81;20939;-48
2020/12/23 03:32:44;;;;;;;29.57;14.18;;;;;;;-1.81;78.81;100980.64;1733337;81;22439;-48
2020/12/23 03:35:13;;;;;;;29.55;13.28;;;;;;;-1.82;78.83;100978.94;1727461;81;21014;-48
2020/12/23 03:37:40;;;;;;;33.88;15.58;;;;;;;-1.83;79.00;100978.52;1727365;81;22124;-48
2020/12/23 03:40:08;;;;;;;29.20;15.18;;;;;;;-1.82;78.94;100978.94;1727111;81;21144;-48
2020/12/23 03:42:36;;;;;;;28.85;13.18;;;;;;;-1.86;78.81;100969.50;1725925;81;21149;-49
2020/12/23 03:45:04;;;;;;;29.02;14.15;;;;;;;-1.89;78.92;100979.95;1725505;81;21368;-49
2020/12/23 03:47:32;;;;;;;27.87;11.65;;;;;;;-1.90;79.07;100982.13;1712248;82;21017;-49
2020/12/23 03:49:59;;;;;;;36.68;14.30;;;;;;;-1.90;79.06;100975.22;1708638;82;21006;-49
2020/12/23 03:52:27;;;;;;;31.12;14.63;;;;;;;-1.91;79.09;100970.91;1726658;82;21132;-49
2020/12/23 03:54:54;;;;;;;35.10;16.15;;;;;;;-1.90;79.14;100972.63;1755235;81;21902;-48
2020/12/23 03:57:22;;;;;;;35.03;16.15;;;;;;;-1.90;79.25;100969.16;1737632;81;21378;-48
2020/12/23 03:59:49;;;;;;;27.77;12.70;;;;;;;-1.90;79.29;100969.16;1728654;81;21050;-49
2020/12/23 04:02:17;;;;;;;35.50;15.88;;;;;;;-1.88;79.42;100964.78;1739466;81;21120;-49
2020/12/23 04:04:44;;;;;;;31.20;15.25;;;;;;;-1.88;79.28;100960.47;1725343;81;21130;-48
2020/12/23 04:07:12;;;;;;;35.48;15.60;;;;;;;-1.85;79.33;100970.78;1725427;81;21145;-48
2020/12/23 04:09:42;;;;;;;40.38;15.85;;;;;;;-1.82;79.28;100958.17;1745132;81;21294;-49
2020/12/23 04:12:09;;;;;;;36.98;15.32;;;;;;;-1.80;79.11;100957.27;1743443;81;21809;-49
2020/12/23 04:14:37;;;;;;;31.68;14.07;;;;;;;-1.80;79.32;100946.02;1727550;81;22043;-49
2020/12/23 04:17:05;;;;;;;31.97;15.15;;;;;;;-1.76;79.41;100948.13;1742719;81;21002;-49
2020/12/23 04:19:34;;;;;;;36.60;16.90;;;;;;;-1.75;79.17;100946.77;1738554;81;21145;-48
2020/12/23 04:22:01;;;;;;;30.62;15.95;;;;;;;-1.74;79.33;100943.75;1728433;81;21292;-48
2020/12/23 04:24:29;;;;;;;30.68;14.58;;;;;;;-1.70;79.37;100947.98;1729962;81;21636;-48
2020/12/23 04:26:57;;;;;;;34.23;14.25;;;;;;;-1.66;79.28;100946.57;1714439;82;20990;-48
2020/12/23 04:29:24;;;;;;;37.03;15.05;;;;;;;-1.65;79.15;100937.89;1708633;82;20955;-48
2020/12/23 04:31:52;;;;;;;32.73;15.15;;;;;;;-1.65;79.23;100944.39;1708836;82;21621;-48
2020/12/23 04:34:19;;;;;;;32.08;13.90;;;;;;;-1.66;79.30;100942.67;1709248;81;22803;-48
2020/12/23 04:36:48;;;;;;;38.13;15.78;;;;;;;-1.67;79.35;100936.23;1745121;81;21000;-48
2020/12/23 04:39:16;;;;;;;34.67;15.58;;;;;;;-1.68;79.46;100939.72;1736187;81;20986;-48
2020/12/23 04:41:43;;;;;;;39.03;16.62;;;;;;;-1.68;79.50;100939.72;1764698;80;21477;-48
2020/12/23 04:44:11;;;;;;;38.25;17.48;;;;;;;-1.70;79.47;100936.31;1758462;80;21154;-49
2020/12/23 04:46:42;;;;;;;43.35;17.73;;;;;;;-1.77;79.47;100936.87;1745405;80;21211;-48
2020/12/23 04:49:09;;;;;;;33.63;15.88;;;;;;;-1.80;79.82;100935.64;1759102;79;21155;-49
2020/12/23 04:51:39;;;;;;;33.30;15.80;;;;;;;-1.79;79.98;100935.62;1723455;81;21159;-49
2020/12/23 04:54:08;;;;;;;39.18;17.35;;;;;;;-1.79;79.89;100938.64;1746903;80;21338;-49
2020/12/23 04:56:36;;;;;;;32.65;15.60;;;;;;;-1.79;80.27;100934.75;1750634;80;21097;-49
2020/12/23 04:59:04;;;;;;;36.93;16.00;;;;;;;-1.78;80.53;100937.75;1751486;78;22390;-49
2020/12/23 05:01:32;;;;;;;41.20;16.35;;;;;;;-1.77;80.42;100934.73;1750151;79;21193;-49
2020/12/23 05:04:00;;;;;;;31.07;14.00;;;;;;;-1.77;80.22;100931.67;1720725;81;21152;-49
2020/12/23 05:06:27;;;;;;;36.83;15.60;;;;;;;-1.76;80.18;100940.34;1736179;81;21123;-49
2020/12/23 05:08:55;;;;;;;28.80;14.18;;;;;;;-1.76;80.01;100935.98;1744556;81;21612;-48
2020/12/23 05:11:23;;;;;;;35.83;15.72;;;;;;;-1.78;80.01;100927.38;1740986;81;21389;-48
2020/12/23 05:13:50;;;;;;;36.42;14.63;;;;;;;-1.81;79.85;100926.14;1717179;82;21169;-48
2020/12/23 05:16:22;;;;;;;32.73;14.60;;;;;;;-1.82;79.95;100924.01;1725597;81;21130;-48
2020/12/23 05:18:55;;;;;;;44.95;16.62;;;;;;;-1.85;80.03;100921.48;1727417;81;21145;-48
2020/12/23 05:21:23;;;;;;;37.53;15.58;;;;;;;-1.87;80.05;100914.17;1732618;81;21152;-48
2020/12/23 05:23:51;;;;;;;35.30;15.28;;;;;;;-1.85;80.13;100924.50;1729939;81;21184;-49
2020/12/23 05:26:19;;;;;;;37.28;15.80;;;;;;;-1.85;80.17;100918.88;1748963;80;21589;-49
2020/12/23 05:28:46;;;;;;;36.38;16.37;;;;;;;-1.87;80.16;100915.47;1757676;80;21053;-48
2020/12/23 05:31:15;;;;;;;34.73;15.90;;;;;;;-1.86;80.22;100922.37;1762853;80;21133;-48
2020/12/23 05:33:46;;;;;;;38.58;16.82;;;;;;;-1.85;80.21;100920.18;1751781;80;21121;-48
2020/12/23 05:36:18;;;;;;;30.97;14.80;;;;;;;-1.85;80.07;100924.08;1733695;80;21211;-48
2020/12/23 05:38:46;;;;;;;32.65;14.90;;;;;;;-1.85;79.95;100917.59;1724916;81;21149;-48
2020/12/23 05:41:15;;;;;;;32.83;14.43;;;;;;;-1.87;79.94;100927.15;1722149;81;21621;-48
2020/12/23 05:43:43;;;;;;;28.98;13.38;;;;;;;-1.87;80.13;100921.09;1725286;81;21137;-48
2020/12/23 05:46:12;;;;;;;30.23;12.88;;;;;;;-1.89;80.18;100917.67;1730985;81;21141;-48
2020/12/23 05:48:40;;;;;;;36.48;15.75;;;;;;;-1.92;80.62;100918.61;1731440;81;22367;-49
2020/12/23 05:51:09;;;;;;;37.83;16.90;;;;;;;-1.89;81.08;100910.76;1716035;81;21143;-49
2020/12/23 05:53:39;;;;;;;32.50;14.55;;;;;;;-1.87;80.83;100910.70;1724401;81;21593;-49
2020/12/23 05:56:08;;;;;;;35.10;15.48;;;;;;;-1.85;80.78;100911.53;1731609;81;22113;-48
2020/12/23 05:58:38;;;;;;;33.80;14.85;;;;;;;-1.82;80.80;100911.03;1725276;81;21145;-49
2020/12/23 06:01:09;;;;;;;36.70;16.00;;;;;;;-1.80;80.69;100907.09;1725491;81;22082;-48
2020/12/23 06:03:56;;;;;;;37.33;15.83;;;;;;;-1.76;80.69;100913.08;1726164;81;21165;-48
2020/12/23 06:06:30;;;;;;;37.28;16.82;;;;;;;-1.76;80.69;100903.54;1716265;81;21177;-49
2020/12/23 06:09:06;;;;;;;37.63;16.60;;;;;;;-1.75;80.60;100897.46;1729578;81;21145;-49
2020/12/23 06:11:47;;;;;;;40.95;17.15;;;;;;;-1.75;80.62;100895.33;1717470;81;21106;-49
2020/12/23 06:14:23;;;;;;;;;;;;;;;-1.76;80.78;100903.54;1719487;81;21617;-48
2020/12/23 06:17:05;;;;;;;38.73;16.82;;;;;;;-1.76;80.91;100903.54;1716568;81;20284;-49
2020/12/23 06:19:39;;;;;;;42.80;17.82;;;;;;;-1.77;80.99;100903.12;1728748;81;20987;-49
2020/12/23 06:22:09;;;;;;;36.60;16.60;;;;;;;-1.79;81.05;100895.83;1722012;81;22099;-49
2020/12/23 06:24:38;;;;;;;41.92;17.48;;;;;;;-1.80;81.21;100892.81;1721078;81;21122;-48
2020/12/23 06:27:08;;;;;;;45.63;20.55;;;;;;;-1.80;81.30;100890.22;1723598;81;21173;-49
2020/12/23 06:29:44;;;;;;;40.63;18.10;;;;;;;-1.80;81.30;100882.44;1721154;81;21153;-49
2020/12/23 06:32:23;;;;;;;47.67;19.45;;;;;;;-1.81;81.36;100882.90;1678376;84;21169;-49
2020/12/23 06:35:01;;;;;;;42.93;17.85;;;;;;;-1.83;81.28;100874.72;1695666;82;21937;-49
2020/12/23 06:37:32;;;;;;;47.05;19.82;;;;;;;-1.85;82.00;100876.50;1728609;81;21575;-49
2020/12/23 06:40:00;;;;;;;43.02;19.17;;;;;;;-1.85;81.99;100876.07;1727130;81;21433;-49
2020/12/23 06:42:28;;;;;;;50.48;22.15;;;;;;;-1.83;82.07;100868.23;1709090;81;21152;-49
2020/12/23 06:45:03;;;;;;;44.45;18.27;;;;;;;-1.80;82.07;100874.65;1728560;81;21759;-48
2020/12/23 06:47:33;;;;;;;43.08;18.45;;;;;;;-1.79;81.95;100876.36;1731605;81;21186;-48
2020/12/23 06:50:17;;;;;;;47.98;20.48;;;;;;;-1.79;81.97;100874.63;1733679;81;21120;-48
2020/12/23 06:52:46;;;;;;;48.45;21.12;;;;;;;-1.77;81.85;100884.96;1749054;78;21211;-48
2020/12/23 06:55:16;;;;;;;55.52;23.38;;;;;;;-1.76;81.94;100875.45;1755464;81;22196;-49
2020/12/23 06:57:55;;;;;;;53.87;23.40;;;;;;;-1.71;81.96;100875.73;1816322;76;22693;-48
2020/12/23 07:00:29;;;;;;;52.45;22.30;;;;;;;-1.76;81.97;100889.27;1783951;78;21210;-49
2020/12/23 07:03:02;;;;;;;58.10;23.50;;;;;;;-1.78;82.07;100879.36;1787532;78;21401;-48
2020/12/23 07:05:41;;;;;;;50.63;22.17;;;;;;;-1.79;82.03;100886.73;1790385;78;21068;-48
2020/12/23 07:08:11;;;;;;;61.42;23.47;;;;;;;-1.81;82.03;100882.03;1782426;78;21844;-49
2020/12/23 07:10:46;;;;;;;54.00;23.25;;;;;;;-1.82;82.23;100879.89;1792087;78;21051;-48
2020/12/23 07:13:19;;;;;;;59.13;22.42;;;;;;;-1.81;82.38;100887.22;1786279;78;21542;-49
2020/12/23 07:15:56;;;;;;;53.17;22.62;;;;;;;-1.80;82.71;100882.44;1782989;78;22714;-49
2020/12/23 07:18:27;;;;;;;50.98;21.62;;;;;;;-1.77;83.24;100892.75;1782039;78;21180;-49
2020/12/23 07:21:06;;;;;;;55.67;23.83;;;;;;;-1.74;83.19;100890.08;1785769;78;21172;-48
2020/12/23 07:23:35;;;;;;;57.38;22.98;;;;;;;-1.72;83.09;100880.98;1778023;78;21173;-53
2020/12/23 07:26:06;;;;;;;67.42;26.42;;;;;;;-1.72;83.04;100865.41;1788320;78;21188;-48
2020/12/23 07:28:40;;;;;;;54.67;24.57;;;;;;;-1.69;82.91;100867.94;1779515;78;22724;-49
2020/12/23 07:31:09;;;;;;;53.58;22.13;;;;;;;-1.68;82.85;100866.58;1781276;78;21232;-49
2020/12/23 07:33:38;;;;;;;53.83;23.38;;;;;;;-1.69;82.69;100867.47;1779635;78;20990;-49
2020/12/23 07:36:06;;;;;;;59.60;24.87;;;;;;;-1.67;82.79;100882.56;1798375;78;21917;-49
2020/12/23 07:38:38;;;;;;;50.90;22.50;;;;;;;-1.66;82.72;100886.87;1789365;78;22124;-48
2020/12/23 07:41:06;;;;;;;58.08;21.95;;;;;;;-1.66;82.69;100880.38;1795510;78;25251;-49
2020/12/23 07:43:34;;;;;;;55.67;22.22;;;;;;;-1.65;82.79;100873.00;1770218;78;20986;-48
2020/12/23 07:46:02;;;;;;;56.28;21.33;;;;;;;-1.64;82.88;100869.52;1784090;78;21105;-48
2020/12/23 07:48:29;;;;;;;51.18;22.30;;;;;;;-1.61;82.96;100871.63;1792942;78;22306;-49
2020/12/23 07:50:58;;;;;;;50.55;21.25;;;;;;;-1.60;82.98;100870.74;1785501;78;20982;-48
2020/12/23 07:53:30;;;;;;;55.35;21.12;;;;;;;-1.58;83.03;100861.17;1773223;80;21563;-49
2020/12/23 07:56:05;;;;;;;59.18;22.55;;;;;;;-1.57;82.87;100868.91;1760553;80;21172;-49
2020/12/23 08:01:14;;;;;;;52.13;18.92;;;;;;;-1.53;82.81;100860.16;1868336;75;29155;-49
2020/12/23 08:03:42;;;;;;;56.83;23.02;;;;;;;-1.58;83.37;100859.88;1845756;77;22452;-49
2020/12/23 08:06:10;;;;;;;54.60;24.50;;;;;;;-1.58;83.18;100855.52;1837881;77;22910;-49
2020/12/23 08:08:40;;;;;;;57.70;22.60;;;;;;;-1.54;83.04;100849.83;1843077;77;21070;-49
2020/12/23 08:11:14;;;;;;;48.83;21.52;;;;;;;-1.52;83.03;100851.94;1787269;78;21095;-49
2020/12/23 08:13:42;;;;;;;59.23;23.32;;;;;;;-1.51;83.17;100856.25;1784998;80;22166;-49
2020/12/23 08:16:12;;;;;;;56.35;22.10;;;;;;;-1.50;83.79;100850.16;1784090;80;21002;-49
2020/12/23 08:18:40;;;;;;;57.65;22.20;;;;;;;-1.49;83.93;100853.16;1773663;80;21653;-49
2020/12/23 08:21:13;;;;;;;49.70;22.30;;;;;;;-1.48;84.10;100857.47;1779511;80;21009;-49
2020/12/23 08:23:41;;;;;;;55.75;22.73;;;;;;;-1.49;84.15;100859.66;1779597;80;21542;-49
2020/12/23 08:26:10;;;;;;;52.50;23.47;;;;;;;-1.49;84.36;100846.67;1793446;78;20967;-49
2020/12/23 08:28:41;;;;;;;60.25;22.25;;;;;;;-1.50;84.65;100843.67;1801108;78;22081;-49
2020/12/23 08:31:11;;;;;;;56.70;22.58;;;;;;;-1.51;84.57;100835.47;1801155;78;21175;-49
2020/12/23 08:33:39;;;;;;;52.67;21.63;;;;;;;-1.52;84.92;100836.36;1806949;78;21630;-48
2020/12/23 08:36:07;;;;;;;48.28;21.60;;;;;;;-1.52;84.86;100829.87;1786027;79;21149;-48
2020/12/23 08:38:37;;;;;;;48.50;18.95;;;;;;;-1.52;85.09;100835.06;1783476;79;21038;-50
2020/12/23 08:41:15;;;;;;;66.72;28.65;;;;;;;-1.52;85.25;100830.71;1770747;79;22046;-49
2020/12/23 08:43:45;;;;;;;75.57;33.75;;;;;;;-1.55;85.47;100825.59;1784282;79;21197;-49
2020/12/23 08:46:27;;;;;;;65.35;26.62;;;;;;;-1.58;86.06;100826.97;1781551;79;21027;-49
2020/12/23 08:48:55;;;;;;;52.80;22.42;;;;;;;-1.61;86.72;100824.91;1773208;79;21491;-48
2020/12/23 08:51:25;;;;;;;57.20;25.90;;;;;;;-1.65;87.39;100818.49;1780351;79;20963;-48
2020/12/23 08:53:53;;;;;;;60.45;21.80;;;;;;;-1.67;87.71;100820.27;1775253;79;21573;-48
2020/12/23 08:56:28;;;;;;;56.65;23.00;;;;;;;-1.70;88.15;100820.34;1781483;79;21213;-48
2020/12/23 08:59:03;;;;;;;48.52;21.80;;;;;;;-1.77;89.60;100819.25;1778984;79;22080;-48
2020/12/23 09:01:32;;;;;;;55.25;24.65;;;;;;;-1.87;90.94;100810.80;1798511;78;22118;-48
2020/12/23 09:04:09;;;;;;;55.05;23.52;;;;;;;-1.88;91.75;100810.40;1774654;79;21043;-48
2020/12/23 09:06:43;;;;;;;50.80;21.15;;;;;;;-1.88;92.04;100812.99;1777060;79;21107;-49
2020/12/23 09:09:13;;;;;;;58.75;24.05;;;;;;;-1.91;92.39;100811.34;1784282;79;21416;-49
2020/12/23 09:11:56;;;;;;;49.35;21.65;;;;;;;-1.91;92.68;100797.50;1777431;79;21023;-48
2020/12/23 09:14:38;;;;;;;56.68;22.75;;;;;;;-1.89;92.99;100791.40;1782413;78;20971;-49
2020/12/23 09:17:14;;;;;;;56.13;23.32;;;;;;;-1.86;93.27;100785.27;1807860;78;20966;-48
2020/12/23 09:19:54;;;;;;;55.20;23.98;;;;;;;-1.82;93.52;100785.60;1771860;80;21118;-49
2020/12/23 09:22:38;;;;;;;46.37;21.27;;;;;;;-1.81;93.69;100781.69;1775598;79;23248;-49
2020/12/23 09:25:26;;;;;;;57.58;24.63;;;;;;;-1.76;93.88;100785.91;1774053;79;21133;-49
2020/12/23 09:27:55;;;;;;;49.90;22.93;;;;;;;-1.78;93.93;100778.16;1775629;80;21142;-48
2020/12/23 09:30:39;;;;;;;48.50;23.02;;;;;;;-1.76;93.99;100776.37;1805759;78;20968;-49
2020/12/23 09:33:13;;;;;;;52.58;22.80;;;;;;;-1.75;94.03;100773.34;1807425;78;21118;-48
2020/12/23 09:35:45;;;;;;;59.00;25.35;;;;;;;-1.75;94.00;100766.86;1777118;80;22952;-48
2020/12/23 09:38:24;;;;;;;53.58;22.80;;;;;;;-1.75;94.13;100766.39;1774860;79;22134;-48
2020/12/23 09:40:53;;;;;;;47.88;21.50;;;;;;;-1.71;94.28;100768.02;1778068;80;21022;-48
2020/12/23 09:43:27;;;;;;;51.35;23.20;;;;;;;-1.69;94.19;100757.62;1778915;80;20980;-48
2020/12/23 09:45:56;;;;;;;51.55;21.97;;;;;;;-1.71;94.03;100762.84;1807971;78;20990;-48
2020/12/23 09:48:25;;;;;;;47.58;21.07;;;;;;;-1.71;94.03;100757.64;1776635;79;21197;-47
2020/12/23 09:50:53;;;;;;;47.00;22.58;;;;;;;-1.68;94.10;100748.48;1808633;78;20983;-47
2020/12/23 09:53:22;;;;;;;46.60;21.55;;;;;;;-1.66;94.14;100741.97;1783683;80;21975;-47
2020/12/23 09:55:51;;;;;;;49.95;21.23;;;;;;;-1.62;94.20;100746.63;1778986;80;21019;-48
2020/12/23 09:58:19;;;;;;;46.92;21.27;;;;;;;-1.60;94.23;100737.05;1775638;80;21471;-49
2020/12/23 10:00:47;;;;;;;47.88;22.02;;;;;;;-1.58;94.24;100732.67;1773629;79;21387;-48
2020/12/23 10:03:15;;;;;;;47.03;21.62;;;;;;;-1.57;94.18;100726.59;1780489;80;21026;-48
2020/12/23 10:05:42;;;;;;;47.43;20.48;;;;;;;-1.56;94.03;100729.59;1810344;78;20987;-48
2020/12/23 10:08:11;;;;;;;44.95;20.82;;;;;;;-1.55;93.98;100722.21;1776516;79;22081;-48
2020/12/23 10:10:39;;;;;;;45.73;21.68;;;;;;;-1.53;94.07;100714.77;1810246;78;21145;-48
2020/12/23 10:13:07;;;;;;;51.40;21.00;;;;;;;-1.47;94.11;100719.39;1812389;78;21340;-48
2020/12/23 10:15:34;;;;;;;43.50;19.32;;;;;;;-1.43;94.11;100715.83;1804822;78;21662;-48
2020/12/23 10:18:03;;;;;;;43.75;21.57;;;;;;;-1.41;94.16;100711.02;1774713;79;22094;-48
2020/12/23 10:20:30;;;;;;;47.10;21.50;;;;;;;-1.40;94.13;100703.62;1772127;79;21121;-48
2020/12/23 10:22:58;;;;;;;43.23;20.57;;;;;;;-1.39;93.99;100705.77;1775706;79;21102;-48
2020/12/23 10:25:26;;;;;;;47.48;22.02;;;;;;;-1.39;93.85;100700.56;1772305;79;21154;-48
2020/12/23 10:27:54;;;;;;;44.95;19.42;;;;;;;-1.41;93.74;100699.76;1773837;79;21014;-48
2020/12/23 10:30:21;;;;;;;43.23;19.75;;;;;;;-1.43;93.72;100695.92;1774736;79;20971;-48
2020/12/23 10:32:49;;;;;;;43.10;20.72;;;;;;;-1.44;93.63;100697.24;1783565;79;21011;-48
2020/12/23 10:35:16;;;;;;;47.03;20.37;;;;;;;-1.45;93.64;100697.70;1792796;79;21541;-48
2020/12/23 10:37:44;;;;;;;44.53;21.65;;;;;;;-1.44;93.74;100697.24;1790264;79;21990;-48
2020/12/23 10:40:12;;;;;;;41.68;19.67;;;;;;;-1.44;93.84;100687.72;1779977;79;21018;-48
2020/12/23 10:42:40;;;;;;;43.65;19.87;;;;;;;-1.43;93.85;100693.75;1791733;79;21153;-48
2020/12/23 10:45:08;;;;;;;44.80;19.05;;;;;;;-1.41;93.91;100687.64;1800544;78;20974;-48
2020/12/23 10:47:37;;;;;;;43.95;20.12;;;;;;;-1.39;93.93;100687.58;1772120;80;21122;-48
2020/12/23 10:50:04;;;;;;;47.27;20.08;;;;;;;-1.36;93.99;100675.38;1776507;80;21366;-48
2020/12/23 10:52:32;;;;;;;39.40;18.57;;;;;;;-1.32;94.00;100680.03;1779829;80;21014;-48
2020/12/23 10:55:00;;;;;;;43.78;19.73;;;;;;;-1.31;94.21;100662.25;1777640;80;21015;-48
2020/12/23 10:57:33;;;;;;;40.15;18.50;;;;;;;-1.35;94.23;100669.30;1773262;80;21140;-48
2020/12/23 10:59:57;;;;;;;41.92;19.95;;;;;;;-1.35;94.54;100669.72;1781355;80;21117;-51
2020/12/23 11:02:24;;;;;;;35.78;16.55;;;;;;;-1.34;94.87;100660.61;1747844;80;22665;-48
2020/12/23 11:04:52;;;;;;;37.40;18.12;;;;;;;-1.30;95.02;100659.23;1771542;80;21030;-48
2020/12/23 11:07:20;;;;;;;36.60;18.20;;;;;;;-1.26;95.21;100653.88;1778636;80;21137;-48
2020/12/23 11:09:48;;;;;;;39.25;18.23;;;;;;;-1.23;95.31;100663.34;1808446;78;20959;-48
2020/12/23 11:12:15;;;;;;;36.93;16.85;;;;;;;-1.22;95.37;100662.45;1772040;80;21113;-48
2020/12/23 11:14:45;;;;;;;34.25;14.75;;;;;;;-1.21;95.35;100652.47;1802552;78;21290;-48
2020/12/23 11:17:13;;;;;;;36.35;17.50;;;;;;;-1.18;95.39;100666.67;1777775;78;21246;-48
2020/12/23 11:19:40;;;;;;;39.38;18.02;;;;;;;-1.19;95.36;100662.37;1777639;80;21161;-48
2020/12/23 11:22:08;;;;;;;36.23;17.37;;;;;;;-1.18;95.45;100658.88;1801360;78;21633;-48
2020/12/23 11:24:36;;;;;;;34.67;16.85;;;;;;;-1.14;95.45;100663.52;1777999;79;21120;-48